createdAt,value
2022-11-01T00:00:38.840Z,3.89
2022-11-01T00:01:40.893Z,3.67
2022-11-01T00:02:43.104Z,3.60
2022-11-01T00:03:45.084Z,3.20
2022-11-01T00:04:47.319Z,4.22
2022-11-01T00:05:49.025Z,4.40
2022-11-01T00:06:51.510Z,4.67
2022-11-01T00:07:53.501Z,4.20
2022-11-01T00:08:55.155Z,4.67
2022-11-01T00:09:56.778Z,1.11
2022-11-01T00:11:05.527Z,4.00
2022-11-01T00:12:07.813Z,5.40
2022-11-01T00:13:10.075Z,4.90
2022-11-01T00:14:17.406Z,0.70
2022-11-01T00:15:19.718Z,4.00
2022-11-01T00:16:22.517Z,5.00
2022-11-01T00:17:24.305Z,4.20
2022-11-01T00:18:26.741Z,3.89
2022-11-01T00:19:29.090Z,6.10
2022-11-01T00:20:31.188Z,5.00
2022-11-01T00:21:32.848Z,5.11
2022-11-01T00:22:34.631Z,5.67
2022-11-01T00:23:37.099Z,5.11
2022-11-01T00:24:39.119Z,4.60
2022-11-01T00:25:41.482Z,4.00
2022-11-01T00:26:43.481Z,5.30
2022-11-01T00:27:45.383Z,5.50
2022-11-01T00:28:47.737Z,5.11
2022-11-01T00:29:49.591Z,5.30
2022-11-01T00:30:52.720Z,4.50
2022-11-01T00:31:54.679Z,9.91
2022-11-01T00:32:57.267Z,6.80
2022-11-01T00:33:59.054Z,6.20
2022-11-01T00:35:00.690Z,6.00
2022-11-01T00:36:02.980Z,5.00
2022-11-01T00:37:04.685Z,6.10
2022-11-01T00:38:06.635Z,5.78
2022-11-01T00:39:13.870Z,4.50
2022-11-01T00:40:15.888Z,4.50
2022-11-01T00:41:17.925Z,3.56
2022-11-01T00:42:20.353Z,5.40
2022-11-01T00:43:22.614Z,0.90
2022-11-01T00:44:24.357Z,5.10
2022-11-01T00:45:26.571Z,5.11
2022-11-01T00:46:28.833Z,5.20
2022-11-01T00:47:30.825Z,3.90
2022-11-01T00:48:32.673Z,6.33
2022-11-01T00:49:34.465Z,5.78
2022-11-01T00:50:36.764Z,9.33
2022-11-01T00:51:38.690Z,10.20
2022-11-01T00:52:40.694Z,8.90
2022-11-01T00:53:42.647Z,7.78
2022-11-01T00:54:44.320Z,8.56
2022-11-01T00:55:46.547Z,9.11
2022-11-01T00:56:48.753Z,8.80
2022-11-01T00:57:50.654Z,7.70
2022-11-01T00:58:52.411Z,5.22
2022-11-01T01:00:56.361Z,4.44
2022-11-01T01:01:58.311Z,6.00
2022-11-01T01:03:00.680Z,4.80
2022-11-01T01:04:02.952Z,4.30
2022-11-01T01:05:06.154Z,7.40
2022-11-01T01:06:08.881Z,8.90
2022-11-01T01:07:10.974Z,9.89
2022-11-01T01:08:12.915Z,5.40
2022-11-01T01:09:15.900Z,9.70
2022-11-01T01:10:18.632Z,9.00
2022-11-01T01:11:20.837Z,9.40
2022-11-01T01:12:24.400Z,5.00
2022-11-01T01:13:26.540Z,7.20
2022-11-01T01:14:32.299Z,7.50
2022-11-01T01:15:32.964Z,8.80
2022-11-01T01:16:34.915Z,9.80
2022-11-01T01:17:36.823Z,8.44
2022-11-01T01:18:38.907Z,5.89
2022-11-01T01:19:42.395Z,6.70
2022-11-01T01:20:44.549Z,5.89
2022-11-01T01:21:46.538Z,5.10
2022-11-01T01:22:48.727Z,4.30
2022-11-01T01:23:50.471Z,4.90
2022-11-01T01:24:52.443Z,3.22
2022-11-01T01:25:54.359Z,4.56
2022-11-01T01:26:56.639Z,3.89
2022-11-01T01:27:58.539Z,4.00
2022-11-01T01:29:00.459Z,2.89
2022-11-01T01:30:03.875Z,3.00
2022-11-01T01:31:07.746Z,3.10
2022-11-01T01:32:15.254Z,3.50
2022-11-01T01:33:17.184Z,3.70
2022-11-01T01:34:19.257Z,2.80
2022-11-01T01:35:20.916Z,2.00
2022-11-01T01:36:22.947Z,3.00
2022-11-01T01:37:25.177Z,5.00
2022-11-01T01:38:27.688Z,3.20
2022-11-01T01:39:29.629Z,4.50
2022-11-01T01:40:32.785Z,5.78
2022-11-01T01:41:35.106Z,7.00
2022-11-01T01:42:39.191Z,6.90
2022-11-01T01:43:43.441Z,4.70
2022-11-01T01:44:57.835Z,5.10
2022-11-01T01:45:59.578Z,7.80
2022-11-01T01:47:01.716Z,9.33
2022-11-01T01:48:10.674Z,12.60
2022-11-01T01:49:12.626Z,14.50
2022-11-01T01:50:30.364Z,10.50
2022-11-01T01:51:32.676Z,16.80
2022-11-01T01:52:55.235Z,16.10
2022-11-01T01:53:58.238Z,21.20
2022-11-01T01:55:03.613Z,23.10
2022-11-01T01:56:12.081Z,20.80
2022-11-01T01:57:13.908Z,24.00
2022-11-01T01:58:19.214Z,21.67
2022-11-01T01:59:21.167Z,26.00
2022-11-01T02:00:23.366Z,27.70
2022-11-01T02:01:26.731Z,30.10
2022-11-01T02:02:29.105Z,29.80
2022-11-01T02:03:33.445Z,28.00
2022-11-01T02:04:39.036Z,26.30
2022-11-01T02:05:53.436Z,25.20
2022-11-01T02:06:57.294Z,28.10
2022-11-01T02:08:00.938Z,31.40
2022-11-01T02:09:06.144Z,35.20
2022-11-01T02:10:10.837Z,31.40
2022-11-01T02:11:15.113Z,30.80
2022-11-01T02:12:17.175Z,30.10
2022-11-01T02:13:19.275Z,27.89
2022-11-01T02:14:23.986Z,32.20
2022-11-01T02:15:30.072Z,30.10
2022-11-01T02:17:05.589Z,21.70
2022-11-01T02:18:18.187Z,27.80
2022-11-01T02:19:57.209Z,20.50
2022-11-01T02:21:24.290Z,18.70
2022-11-01T02:22:39.113Z,19.90
2022-11-01T02:24:16.935Z,18.90
2022-11-01T02:25:49.125Z,13.70
2022-11-01T02:27:06.848Z,15.60
2022-11-01T02:28:44.864Z,12.10
2022-11-01T02:30:08.679Z,17.60
2022-11-01T02:31:33.954Z,17.10
2022-11-01T02:32:39.829Z,14.10
2022-11-01T02:33:45.529Z,18.80
2022-11-01T02:34:59.975Z,18.30
2022-11-01T02:36:11.410Z,14.40
2022-11-01T02:37:19.832Z,19.80
2022-11-01T02:38:40.548Z,23.10
2022-11-01T02:39:46.028Z,18.20
2022-11-01T02:40:57.952Z,20.80
2022-11-01T02:42:07.177Z,14.20
2022-11-01T02:43:19.163Z,21.30
2022-11-01T02:44:27.420Z,21.60
2022-11-01T02:45:32.925Z,20.00
2022-11-01T02:46:44.430Z,23.50
2022-11-01T02:47:46.290Z,18.30
2022-11-01T02:48:49.301Z,13.56
2022-11-01T02:49:54.339Z,9.18
2022-11-01T02:50:57.994Z,13.90
2022-11-01T02:52:02.243Z,7.00
2022-11-01T02:53:04.885Z,8.80
2022-11-01T02:54:09.537Z,7.82
2022-11-01T02:55:15.122Z,6.70
2022-11-01T02:56:18.860Z,5.50
2022-11-01T02:57:30.269Z,4.90
2022-11-01T02:58:32.305Z,3.70
2022-11-01T02:59:48.244Z,5.11
2022-11-01T03:00:51.049Z,1.20
2022-11-01T03:02:00.059Z,3.91
2022-11-01T03:03:22.543Z,4.00
2022-11-01T03:04:24.594Z,4.40
2022-11-01T03:05:33.981Z,4.00
2022-11-01T03:06:42.232Z,1.20
2022-11-01T03:07:47.751Z,3.60
2022-11-01T03:08:53.256Z,3.60
2022-11-01T03:09:55.106Z,3.50
2022-11-01T03:11:09.952Z,3.78
2022-11-01T03:12:21.589Z,3.70
2022-11-01T03:13:36.169Z,2.90
2022-11-01T03:14:45.531Z,3.60
2022-11-01T03:15:51.017Z,3.10
2022-11-01T03:17:08.910Z,3.50
2022-11-01T03:18:15.042Z,3.10
2022-11-01T03:19:38.829Z,2.10
2022-11-01T03:20:44.803Z,3.30
2022-11-01T03:22:11.436Z,2.20
2022-11-01T03:23:17.536Z,3.00
2022-11-01T03:24:25.808Z,3.00
2022-11-01T03:25:34.366Z,2.40
2022-11-01T03:26:38.522Z,2.50
2022-11-01T03:27:45.201Z,1.60
2022-11-01T03:28:50.718Z,4.00
2022-11-01T03:30:02.053Z,2.30
2022-11-01T03:31:13.591Z,3.10
2022-11-01T03:32:18.816Z,2.80
2022-11-01T03:33:23.840Z,2.40
2022-11-01T03:34:25.809Z,2.70
2022-11-01T03:35:32.296Z,3.00
2022-11-01T03:36:37.989Z,2.30
2022-11-01T03:37:42.602Z,2.90
2022-11-01T03:40:04.035Z,2.00
2022-11-01T03:41:09.535Z,3.00
2022-11-01T03:42:15.492Z,1.60
2022-11-01T03:43:20.494Z,1.90
2022-11-01T03:44:22.920Z,2.40
2022-11-01T03:45:26.310Z,3.20
2022-11-01T03:46:28.545Z,2.50
2022-11-01T03:47:30.788Z,1.90
2022-11-01T03:48:33.155Z,3.30
2022-11-01T03:49:34.981Z,2.90
2022-11-01T03:50:37.064Z,2.80
2022-11-01T03:51:39.308Z,3.00
2022-11-01T03:52:42.193Z,2.40
2022-11-01T03:53:44.205Z,4.91
2022-11-01T03:54:47.234Z,4.00
2022-11-01T03:55:49.958Z,3.18
2022-11-01T03:56:52.941Z,3.64
2022-11-01T03:57:58.926Z,3.64
2022-11-01T03:59:00.910Z,5.00
2022-11-01T04:00:03.860Z,3.78
2022-11-01T04:01:09.916Z,3.50
2022-11-01T04:02:12.033Z,4.20
2022-11-01T04:03:13.786Z,4.11
2022-11-01T04:04:15.716Z,5.22
2022-11-01T04:05:18.635Z,4.00
2022-11-01T04:06:20.623Z,4.10
2022-11-01T04:07:22.226Z,4.78
2022-11-01T04:08:24.070Z,4.56
2022-11-01T04:09:26.235Z,3.56
2022-11-01T04:10:28.944Z,5.00
2022-11-01T04:11:30.818Z,4.80
2022-11-01T04:12:32.753Z,4.33
2022-11-01T04:13:34.481Z,4.00
2022-11-01T04:14:36.120Z,5.22
2022-11-01T04:15:37.972Z,5.00
2022-11-01T04:16:40.261Z,4.40
2022-11-01T04:17:42.088Z,4.67
2022-11-01T04:18:44.031Z,5.44
2022-11-01T04:19:45.635Z,5.11
2022-11-01T04:20:48.015Z,3.00
2022-11-01T04:21:49.934Z,5.50
2022-11-01T04:22:51.830Z,4.50
2022-11-01T04:23:54.043Z,8.11
2022-11-01T04:24:56.195Z,4.00
2022-11-01T04:25:58.998Z,4.70
2022-11-01T04:27:01.083Z,4.60
2022-11-01T04:28:03.325Z,5.30
2022-11-01T04:29:05.679Z,4.00
2022-11-01T04:30:08.397Z,3.80
2022-11-01T04:31:10.682Z,3.50
2022-11-01T04:32:12.656Z,4.30
2022-11-01T04:33:15.101Z,3.11
2022-11-01T04:34:17.249Z,3.50
2022-11-01T04:35:20.111Z,3.70
2022-11-01T04:36:22.490Z,4.27
2022-11-01T04:37:24.166Z,4.00
2022-11-01T04:38:25.885Z,5.33
2022-11-01T04:39:27.604Z,5.00
2022-11-01T04:40:30.046Z,4.00
2022-11-01T04:41:31.965Z,2.80
2022-11-01T04:42:34.579Z,3.00
2022-11-01T04:43:36.551Z,5.10
2022-11-01T04:44:38.242Z,4.67
2022-11-01T04:45:40.465Z,4.67
2022-11-01T04:46:42.568Z,5.20
2022-11-01T04:47:44.405Z,4.33
2022-11-01T04:48:46.145Z,4.44
2022-11-01T04:49:47.768Z,5.89
2022-11-01T04:50:49.711Z,4.67
2022-11-01T04:51:51.354Z,2.89
2022-11-01T04:52:53.112Z,4.00
2022-11-01T04:53:55.907Z,4.89
2022-11-01T04:54:58.279Z,4.73
2022-11-01T04:56:02.132Z,4.20
2022-11-01T04:57:04.071Z,4.70
2022-11-01T04:58:05.980Z,2.11
2022-11-01T04:59:07.863Z,5.70
2022-11-01T05:00:12.531Z,6.90
2022-11-01T05:01:15.020Z,7.40
2022-11-01T05:02:19.469Z,2.60
2022-11-01T05:03:21.519Z,7.40
2022-11-01T05:04:23.324Z,7.22
2022-11-01T05:05:25.186Z,6.00
2022-11-01T05:06:27.702Z,6.60
2022-11-01T05:07:29.387Z,7.60
2022-11-01T05:08:31.232Z,9.22
2022-11-01T05:09:33.372Z,7.22
2022-11-01T05:10:37.655Z,8.50
2022-11-01T05:11:40.670Z,8.50
2022-11-01T05:12:42.435Z,9.73
2022-11-01T05:13:44.066Z,10.22
2022-11-01T05:14:45.826Z,9.11
2022-11-01T05:16:13.671Z,8.44
2022-11-01T05:16:57.142Z,4.50
2022-11-01T05:17:58.977Z,6.80
2022-11-01T05:19:00.623Z,8.33
2022-11-01T05:20:02.604Z,9.44
2022-11-01T05:21:04.489Z,9.33
2022-11-01T05:22:06.227Z,13.44
2022-11-01T05:23:08.722Z,9.78
2022-11-01T05:24:10.417Z,9.80
2022-11-01T05:25:12.193Z,4.11
2022-11-01T05:26:14.289Z,12.00
2022-11-01T05:27:16.047Z,11.22
2022-11-01T05:28:17.779Z,17.22
2022-11-01T05:29:24.835Z,14.20
2022-11-01T05:30:23.936Z,12.30
2022-11-01T05:31:25.874Z,9.00
2022-11-01T05:32:28.076Z,11.89
2022-11-01T05:33:29.959Z,10.90
2022-11-01T05:34:31.762Z,5.22
2022-11-01T05:35:35.503Z,9.44
2022-11-01T05:36:38.694Z,9.60
2022-11-01T05:37:40.443Z,10.40
2022-11-01T05:38:42.166Z,10.78
2022-11-01T05:39:43.892Z,11.00
2022-11-01T05:40:47.038Z,9.00
2022-11-01T05:41:49.135Z,9.00
2022-11-01T05:42:50.976Z,9.44
2022-11-01T05:43:52.626Z,10.00
2022-11-01T05:44:54.851Z,11.70
2022-11-01T05:45:56.480Z,11.22
2022-11-01T05:46:58.202Z,8.00
2022-11-01T05:48:04.243Z,9.89
2022-11-01T05:49:06.385Z,4.40
2022-11-01T05:50:11.045Z,10.20
2022-11-01T05:51:12.776Z,9.90
2022-11-01T05:52:14.396Z,8.78
2022-11-01T05:53:16.568Z,10.56
2022-11-01T05:54:18.375Z,10.50
2022-11-01T05:55:20.124Z,9.33
2022-11-01T05:56:22.537Z,8.89
2022-11-01T05:57:25.584Z,8.10
2022-11-01T05:58:30.965Z,9.60
2022-11-01T05:59:33.006Z,7.70
2022-11-01T06:00:35.187Z,8.89
2022-11-01T06:01:37.268Z,8.60
2022-11-01T06:02:39.286Z,4.20
2022-11-01T06:03:40.992Z,8.33
2022-11-01T06:04:44.014Z,8.11
2022-11-01T06:05:45.875Z,8.20
2022-11-01T06:06:48.727Z,8.44
2022-11-01T06:07:51.092Z,6.80
2022-11-01T06:08:53.860Z,6.60
2022-11-01T06:09:55.677Z,8.70
2022-11-01T06:11:03.619Z,7.00
2022-11-01T06:12:05.658Z,8.50
2022-11-01T06:13:08.063Z,8.67
2022-11-01T06:14:10.272Z,7.30
2022-11-01T06:15:12.274Z,7.60
2022-11-01T06:16:14.865Z,6.50
2022-11-01T06:17:16.822Z,6.89
2022-11-01T06:18:18.563Z,8.22
2022-11-01T06:19:20.215Z,8.67
2022-11-01T06:20:22.080Z,7.11
2022-11-01T06:21:27.598Z,7.33
2022-11-01T06:22:27.617Z,7.70
2022-11-01T06:23:29.368Z,5.89
2022-11-01T06:24:31.039Z,8.44
2022-11-01T06:25:33.335Z,5.00
2022-11-01T06:26:35.314Z,4.00
2022-11-01T06:27:37.054Z,7.33
2022-11-01T06:28:39.016Z,9.44
2022-11-01T06:29:40.868Z,9.67
2022-11-01T06:30:42.681Z,8.44
2022-11-01T06:31:44.519Z,8.22
2022-11-01T06:32:46.665Z,7.78
2022-11-01T06:33:49.696Z,9.50
2022-11-01T11:10:49.090Z,2.40
2022-11-01T11:11:54.472Z,2.90
2022-11-01T11:13:00.229Z,3.70
2022-11-01T11:14:05.830Z,1.80
2022-11-01T11:15:17.645Z,1.80
2022-11-01T11:16:36.013Z,1.20
2022-11-01T11:17:40.332Z,1.20
2022-11-01T11:18:45.823Z,2.80
2022-11-01T11:19:50.814Z,6.00
2022-11-01T11:21:07.404Z,4.00
2022-11-01T11:22:09.917Z,2.70
2022-11-01T11:23:12.201Z,0.00
2022-11-01T11:24:35.982Z,1.00
2022-11-01T11:25:38.326Z,1.00
2022-11-01T11:27:48.338Z,1.00
2022-11-01T11:28:56.320Z,0.30
2022-11-01T11:30:01.463Z,0.30
2022-11-01T11:31:29.263Z,0.70
2022-11-01T11:32:36.890Z,1.00
2022-11-01T11:33:41.150Z,1.80
2022-11-01T11:34:44.536Z,1.00
2022-11-01T11:35:58.590Z,0.00
2022-11-01T11:37:02.920Z,1.10
2022-11-01T11:38:07.169Z,1.00
2022-11-01T11:39:27.349Z,0.60
2022-11-01T11:40:42.473Z,1.00
2022-11-01T11:41:45.459Z,1.20
2022-11-01T11:42:50.733Z,1.00
2022-11-01T11:43:53.473Z,1.70
2022-11-01T11:44:58.947Z,1.80
2022-11-01T11:46:16.182Z,1.00
2022-11-01T11:47:21.709Z,1.10
2022-11-01T11:48:23.547Z,1.00
2022-11-01T11:49:26.992Z,1.78
2022-11-01T11:50:31.918Z,2.00
2022-11-01T11:51:36.259Z,3.40
2022-11-01T11:52:38.943Z,3.80
2022-11-01T11:53:41.805Z,3.64
2022-11-01T11:54:45.157Z,3.09
2022-11-01T11:55:58.401Z,0.90
2022-11-01T11:57:26.776Z,1.50
2022-11-01T11:58:42.006Z,2.00
2022-11-01T11:59:47.776Z,1.50
2022-11-01T12:00:53.923Z,0.90
2022-11-01T12:02:01.834Z,1.80
2022-11-01T12:03:07.396Z,1.60
2022-11-01T12:04:13.323Z,0.80
2022-11-01T12:05:18.931Z,1.30
2022-11-01T12:06:27.359Z,2.20
2022-11-01T12:07:35.976Z,1.00
2022-11-01T12:08:44.223Z,2.40
2022-11-01T12:09:47.781Z,3.40
2022-11-01T12:10:54.177Z,1.80
2022-11-01T12:11:56.634Z,1.70
2022-11-01T12:13:03.947Z,1.50
2022-11-01T12:14:19.430Z,1.60
2022-11-01T12:15:30.992Z,1.10
2022-11-01T12:16:41.194Z,2.50
2022-11-01T12:17:45.731Z,2.00
2022-11-01T12:18:53.633Z,1.60
2022-11-01T12:20:03.630Z,2.20
2022-11-01T12:21:09.121Z,1.50
2022-11-01T12:22:12.397Z,2.10
2022-11-01T12:23:17.879Z,1.00
2022-11-01T12:24:26.176Z,1.80
2022-11-01T12:25:28.829Z,2.20
2022-11-01T12:26:33.963Z,2.27
2022-11-01T12:27:36.922Z,1.70
2022-11-01T12:30:13.016Z,2.50
2022-11-01T12:31:18.328Z,2.00
2022-11-01T12:32:25.154Z,1.50
2022-11-01T12:33:37.711Z,1.50
2022-11-01T12:34:46.118Z,1.80
2022-11-01T12:35:50.174Z,1.90
2022-11-01T12:36:59.053Z,2.20
2022-11-01T12:38:13.630Z,2.30
2022-11-01T12:39:22.347Z,2.20
2022-11-01T12:40:28.073Z,3.00
2022-11-01T12:41:48.621Z,2.80
2022-11-01T12:43:00.450Z,2.00
2022-11-01T12:44:15.392Z,3.00
2022-11-01T12:45:33.233Z,2.00
2022-11-01T12:46:57.504Z,3.30
2022-11-01T12:48:09.602Z,2.50
2022-11-01T12:49:29.968Z,1.60
2022-11-01T12:50:39.063Z,1.80
2022-11-01T12:51:47.830Z,2.00
2022-11-01T12:52:58.962Z,2.40
2022-11-01T12:54:17.317Z,2.00
2022-11-01T12:55:40.125Z,3.70
2022-11-01T12:56:42.198Z,2.10
2022-11-01T12:57:44.333Z,3.00
2022-11-01T12:58:46.491Z,2.60
2022-11-01T12:59:48.507Z,2.20
2022-11-01T13:01:14.611Z,3.00
2022-11-01T13:03:55.615Z,2.00
2022-11-01T13:05:01.195Z,3.10
2022-11-01T13:06:42.188Z,1.50
2022-11-01T13:07:57.542Z,2.40
2022-11-01T13:09:03.224Z,1.70
2022-11-01T13:10:30.354Z,1.60
2022-11-01T13:11:45.573Z,2.00
2022-11-01T13:13:00.867Z,1.80
2022-11-01T13:14:19.292Z,1.50
2022-11-01T13:15:31.574Z,1.80
2022-11-01T13:16:40.824Z,1.80
2022-11-01T13:17:49.125Z,1.80
2022-11-01T13:19:04.101Z,2.00
2022-11-01T13:20:25.027Z,1.40
2022-11-01T13:21:39.706Z,3.30
2022-11-01T13:23:05.126Z,2.40
2022-11-01T13:24:32.776Z,1.60
2022-11-01T13:25:44.081Z,2.60
2022-11-01T13:26:53.384Z,3.00
2022-11-01T13:28:08.843Z,2.00
2022-11-01T13:29:20.296Z,2.80
2022-11-01T13:30:22.635Z,2.40
2022-11-01T13:31:53.018Z,2.00
2022-11-01T13:33:02.323Z,2.50
2022-11-01T13:34:20.322Z,1.70
2022-11-01T13:35:35.350Z,1.10
2022-11-01T13:36:50.115Z,2.70
2022-11-01T13:38:08.064Z,2.80
2022-11-01T13:39:16.680Z,3.20
2022-11-01T13:40:22.343Z,3.20
2022-11-01T13:41:37.493Z,4.20
2022-11-01T13:42:43.010Z,2.50
2022-11-01T13:44:00.531Z,2.00
2022-11-01T13:45:21.460Z,1.00
2022-11-01T13:46:43.880Z,1.60
2022-11-01T13:49:23.697Z,3.00
2022-11-01T13:50:50.905Z,1.80
2022-11-01T13:51:56.484Z,2.50
2022-11-01T13:53:14.300Z,2.10
2022-11-01T13:54:29.813Z,3.00
2022-11-01T13:55:44.310Z,3.40
2022-11-01T13:56:50.998Z,2.50
2022-11-01T13:57:53.445Z,2.40
2022-11-01T13:58:55.822Z,2.80
2022-11-01T14:00:01.264Z,3.30
2022-11-01T14:01:29.335Z,3.90
2022-11-01T14:02:34.884Z,3.00
2022-11-01T14:03:37.362Z,3.40
2022-11-01T14:04:40.535Z,4.20
2022-11-01T14:05:45.035Z,4.00
2022-11-01T14:07:05.774Z,3.50
2022-11-01T14:08:28.081Z,5.20
2022-11-01T14:09:31.701Z,4.90
2022-11-01T14:10:37.350Z,8.10
2022-11-01T14:11:45.710Z,9.70
2022-11-01T14:13:08.716Z,10.70
2022-11-01T14:14:33.389Z,11.90
2022-11-01T14:16:48.346Z,13.80
2022-11-01T14:17:53.803Z,15.30
2022-11-01T14:19:05.292Z,15.80
2022-11-01T14:20:11.842Z,15.70
2022-11-01T14:21:23.284Z,15.70
2022-11-01T14:22:27.921Z,16.20
2022-11-01T14:23:33.479Z,16.60
2022-11-01T14:24:38.959Z,12.10
2022-11-01T14:25:40.809Z,17.90
2022-11-01T14:27:01.479Z,17.00
2022-11-01T14:28:19.668Z,18.10
2022-11-01T14:29:21.795Z,17.90
2022-11-01T14:30:27.274Z,18.70
2022-11-01T14:31:31.026Z,16.00
2022-11-01T14:32:33.157Z,17.50
2022-11-01T14:33:35.657Z,17.40
2022-11-01T14:34:39.650Z,17.70
2022-11-01T14:35:44.799Z,17.10
2022-11-01T14:36:49.757Z,14.70
2022-11-01T14:37:55.085Z,13.40
2022-11-01T14:39:20.458Z,10.90
2022-11-01T14:40:34.853Z,14.70
2022-11-01T14:41:39.187Z,16.80
2022-11-01T19:36:46.338Z,25.80
2022-11-01T19:37:53.687Z,25.70
2022-11-01T19:38:56.226Z,23.20
2022-11-01T19:39:58.563Z,21.33
2022-11-01T19:41:00.968Z,27.20
2022-11-01T19:42:16.151Z,30.45
2022-11-01T19:43:24.421Z,25.20
2022-11-01T19:44:29.336Z,25.10
2022-11-01T19:45:32.886Z,30.40
2022-11-01T19:46:35.711Z,32.00
2022-11-01T19:47:44.669Z,24.64
2022-11-01T19:48:48.276Z,28.40
2022-11-01T19:49:50.414Z,30.30
2022-11-01T19:50:52.916Z,26.30
2022-11-01T19:53:28.067Z,29.10
2022-11-01T19:54:34.892Z,30.30
2022-11-01T19:55:47.176Z,28.50
2022-11-01T19:56:49.462Z,34.40
2022-11-01T19:57:54.810Z,22.90
2022-11-01T19:58:58.582Z,31.50
2022-11-01T20:00:18.708Z,31.70
2022-11-01T20:01:38.891Z,30.10
2022-11-01T20:02:41.069Z,16.00
2022-11-01T20:03:52.894Z,27.10
2022-11-01T20:04:59.991Z,26.60
2022-11-01T20:06:02.655Z,29.80
2022-11-01T20:07:14.051Z,22.80
2022-11-01T20:08:19.785Z,26.40
2022-11-01T20:09:26.178Z,27.00
2022-11-01T20:10:29.843Z,26.90
2022-11-01T20:11:32.949Z,27.20
2022-11-01T20:12:35.995Z,23.27
2022-11-01T20:13:38.091Z,28.10
2022-11-01T20:14:40.089Z,24.60
2022-11-01T20:15:42.810Z,21.00
2022-11-01T20:16:46.297Z,22.80
2022-11-01T20:17:48.409Z,21.20
2022-11-01T20:18:50.428Z,27.30
2022-11-01T20:19:52.152Z,26.11
2022-11-01T20:20:54.446Z,22.56
2022-11-01T20:21:56.626Z,23.00
2022-11-01T20:23:20.323Z,16.80
2022-11-01T20:24:02.995Z,22.80
2022-11-01T20:25:06.537Z,21.50
2022-11-01T20:26:09.658Z,23.50
2022-11-01T20:27:11.562Z,23.10
2022-11-01T20:28:13.411Z,22.78
2022-11-01T20:29:15.735Z,21.22
2022-11-01T20:30:18.737Z,24.60
2022-11-01T20:31:20.852Z,14.90
2022-11-01T20:32:24.252Z,24.70
2022-11-01T20:33:27.727Z,22.90
2022-11-01T20:34:29.713Z,24.30
2022-11-01T20:35:31.693Z,16.20
2022-11-01T20:36:33.748Z,22.10
2022-11-01T20:37:36.728Z,24.70
2022-11-01T20:38:41.835Z,20.36
2022-11-01T20:39:44.441Z,20.10
2022-11-01T20:40:46.699Z,19.40
2022-11-01T20:41:48.626Z,21.80
2022-11-01T20:42:52.284Z,16.22
2022-11-01T20:43:56.820Z,21.50
2022-11-01T20:44:58.929Z,18.40
2022-11-01T20:46:00.864Z,19.89
2022-11-01T20:47:03.065Z,21.00
2022-11-01T20:48:06.612Z,19.00
2022-11-01T20:49:08.782Z,25.20
2022-11-01T20:50:13.252Z,21.40
2022-11-01T20:51:15.236Z,17.90
2022-11-01T20:52:38.690Z,18.56
2022-11-01T20:53:21.530Z,14.30
2022-11-01T20:54:24.460Z,20.90
2022-11-01T20:55:27.329Z,22.89
2022-11-01T20:56:30.086Z,20.80
2022-11-01T20:57:31.997Z,19.50
2022-11-01T20:58:33.993Z,16.70
2022-11-01T20:59:35.779Z,19.89
2022-11-01T21:00:38.431Z,18.40
2022-11-01T21:01:40.536Z,19.78
2022-11-01T21:02:42.526Z,20.00
2022-11-01T21:03:44.999Z,17.89
2022-11-01T21:04:53.751Z,18.80
2022-11-01T21:05:55.718Z,19.70
2022-11-01T21:06:57.698Z,16.33
2022-11-01T21:08:11.911Z,17.33
2022-11-01T21:09:35.999Z,18.90
2022-11-01T21:10:40.216Z,20.40
2022-11-01T21:11:43.610Z,20.20
2022-11-01T21:12:48.805Z,19.40
2022-11-01T21:13:51.381Z,19.70
2022-11-01T21:14:54.393Z,19.10
2022-11-01T21:16:00.102Z,17.50
2022-11-01T21:18:19.905Z,25.30
2022-11-01T21:19:26.025Z,20.40
2022-11-01T21:20:29.287Z,20.40
2022-11-01T21:21:46.252Z,19.80
2022-11-01T21:22:43.765Z,9.10
2022-11-01T21:23:46.116Z,19.30
2022-11-01T21:24:51.063Z,19.30
2022-11-01T21:25:56.732Z,19.10
2022-11-01T21:27:11.592Z,17.60
2022-11-01T21:29:44.998Z,20.30
2022-11-01T21:30:46.847Z,17.50
2022-11-01T21:31:49.756Z,19.22
2022-11-01T21:32:53.484Z,17.10
2022-11-01T21:34:02.873Z,18.40
2022-11-01T21:35:23.582Z,19.20
2022-11-01T21:36:40.445Z,18.40
2022-11-01T21:37:43.165Z,20.20
2022-11-01T21:38:48.450Z,19.36
2022-11-01T21:40:03.195Z,21.20
2022-11-01T21:41:14.272Z,21.40
2022-11-01T21:42:31.877Z,18.80
2022-11-01T21:43:33.750Z,12.60
2022-11-01T21:44:41.581Z,18.22
2022-11-01T21:45:46.034Z,18.80
2022-11-01T21:46:51.761Z,18.30
2022-11-01T21:47:55.407Z,19.60
2022-11-01T21:48:59.949Z,17.00
2022-11-01T21:50:01.986Z,19.40
2022-11-01T21:51:04.317Z,17.44
2022-11-01T21:52:08.604Z,22.40
2022-11-01T21:53:10.568Z,18.70
2022-11-01T21:54:14.469Z,18.44
2022-11-01T21:55:16.420Z,19.60
2022-11-01T21:56:18.615Z,17.50
2022-11-01T21:57:21.138Z,17.56
2022-11-01T21:58:23.063Z,18.30
2022-11-01T21:59:25.374Z,16.22
2022-11-01T22:00:27.324Z,20.10
2022-11-01T22:01:31.971Z,20.67
2022-11-01T22:02:34.311Z,18.40
2022-11-01T22:03:36.194Z,17.90
2022-11-01T22:04:38.227Z,20.56
2022-11-01T22:05:40.571Z,21.20
2022-11-01T22:06:43.208Z,20.70
2022-11-01T22:07:45.122Z,19.90
2022-11-01T22:08:46.943Z,19.11
2022-11-01T22:09:49.055Z,22.70
2022-11-01T22:10:51.328Z,20.80
2022-11-01T22:11:53.502Z,24.89
2022-11-01T22:12:55.500Z,23.00
2022-11-01T22:13:57.991Z,16.56
2022-11-01T22:14:59.845Z,17.10
2022-11-01T22:16:01.790Z,19.44
2022-11-01T22:17:03.636Z,21.11
2022-11-01T22:18:06.037Z,22.11
2022-11-01T22:19:08.550Z,22.70
2022-11-01T22:20:11.789Z,22.00
2022-11-01T22:21:13.791Z,20.60
2022-11-01T22:22:16.533Z,21.70
2022-11-01T22:23:18.477Z,21.90
2022-11-01T22:24:20.462Z,24.89
2022-11-01T22:25:22.751Z,22.60
2022-11-01T22:26:25.457Z,21.80
2022-11-01T22:27:29.695Z,21.10
2022-11-01T22:28:31.501Z,24.30
2022-11-01T22:29:33.414Z,22.50
2022-11-01T22:30:35.152Z,24.00
2022-11-01T22:31:36.919Z,26.11
2022-11-01T22:32:38.726Z,22.33
2022-11-01T22:33:40.972Z,27.56
2022-11-01T22:34:45.668Z,22.60
2022-11-01T22:35:48.775Z,25.10
2022-11-01T22:36:50.812Z,21.90
2022-11-01T22:37:54.426Z,21.20
2022-11-01T22:38:58.612Z,23.80
2022-11-01T22:40:03.041Z,21.90
2022-11-01T22:41:17.766Z,18.60
2022-11-01T22:42:20.866Z,21.40
2022-11-01T22:43:23.732Z,23.36
2022-11-01T22:44:28.402Z,21.09
2022-11-01T22:45:32.934Z,22.30
2022-11-01T22:46:41.706Z,21.50
2022-11-01T22:47:45.557Z,20.70
2022-11-01T22:48:48.792Z,21.80
2022-11-01T22:49:53.454Z,22.20
2022-11-01T22:50:55.443Z,16.60
2022-11-01T22:52:06.420Z,19.70
2022-11-01T22:53:24.204Z,23.20
2022-11-01T22:54:43.104Z,19.20
2022-11-01T22:55:47.598Z,23.60
2022-11-01T22:57:07.861Z,22.60
2022-11-01T22:58:34.398Z,20.30
2022-11-01T23:01:12.817Z,21.90
2022-11-01T23:02:32.350Z,22.40
2022-11-01T23:03:43.016Z,23.30
2022-11-01T23:04:45.128Z,23.40
2022-11-01T23:05:51.195Z,23.00
2022-11-01T23:06:53.184Z,22.80
2022-11-01T23:07:58.204Z,25.89
2022-11-01T23:09:20.024Z,22.90
2022-11-01T23:10:26.206Z,20.20
2022-11-01T23:11:28.836Z,24.30
2022-11-01T23:12:33.354Z,24.20
2022-11-01T23:13:38.363Z,22.20
2022-11-01T23:14:42.707Z,23.50
2022-11-01T23:15:46.282Z,19.00
2022-11-01T23:16:50.285Z,15.30
2022-11-01T23:17:52.167Z,23.10
2022-11-01T23:18:58.385Z,22.11
2022-11-01T23:20:01.763Z,20.50
2022-11-01T23:21:08.190Z,23.20
2022-11-01T23:22:16.561Z,21.10
2022-11-01T23:23:19.634Z,23.00
2022-11-01T23:24:21.389Z,20.00
2022-11-01T23:25:25.071Z,18.33
2022-11-01T23:26:29.505Z,13.90
2022-11-01T23:27:31.470Z,17.60
2022-11-01T23:28:33.636Z,22.11
2022-11-01T23:29:37.985Z,22.10
2022-11-01T23:30:42.482Z,18.80
2022-11-01T23:31:44.814Z,21.60
2022-11-01T23:32:46.884Z,24.00
2022-11-01T23:33:50.013Z,22.67
2022-11-01T23:34:55.646Z,22.80
2022-11-01T23:35:59.845Z,22.40
2022-11-01T23:37:01.717Z,24.70
2022-11-01T23:38:09.922Z,24.22
2022-11-01T23:39:14.146Z,27.90
2022-11-01T23:40:20.839Z,23.00
2022-11-01T23:41:29.496Z,20.70
2022-11-01T23:42:31.701Z,15.60
2022-11-01T23:43:37.042Z,24.40
2022-11-01T23:44:40.427Z,25.30
2022-11-01T23:45:42.387Z,22.80
2022-11-01T23:46:44.613Z,22.70
2022-11-01T23:47:47.254Z,25.00
2022-11-01T23:48:51.561Z,23.90
2022-11-01T23:50:04.223Z,27.90
2022-11-01T23:51:09.778Z,26.50
2022-11-01T23:52:39.672Z,27.90
2022-11-01T23:53:44.362Z,18.60
2022-11-01T23:54:46.477Z,20.09
2022-11-01T23:55:53.074Z,25.10
2022-11-01T23:56:55.116Z,23.30
2022-11-01T23:58:02.554Z,22.00
2022-11-01T23:59:04.931Z,28.00
